sensor_id;sensor_type;location;lat;lon;timestamp;temperature;humidity
42099;DHT22;27758;55.900;8.516;2022-09-09T00:04:41;13.80;99.90
42099;DHT22;27758;55.900;8.516;2022-09-09T00:15:14;13.80;99.90
42099;DHT22;27758;55.900;8.516;2022-09-09T00:20:38;13.80;99.90
42099;DHT22;27758;55.900;8.516;2022-09-09T00:25:42;13.80;99.90
42099;DHT22;27758;55.900;8.516;2022-09-09T00:28:18;13.80;99.90
42099;DHT22;27758;55.900;8.516;2022-09-09T00:30:45;13.80;99.90
42099;DHT22;27758;55.900;8.516;2022-09-09T00:33:16;13.80;99.90
42099;DHT22;27758;55.900;8.516;2022-09-09T00:35:52;13.80;99.90
42099;DHT22;27758;55.900;8.516;2022-09-09T00:38:28;13.80;99.90
42099;DHT22;27758;55.900;8.516;2022-09-09T00:41:09;13.80;99.90
42099;DHT22;27758;55.900;8.516;2022-09-09T00:43:38;13.80;99.90
42099;DHT22;27758;55.900;8.516;2022-09-09T00:51:46;13.80;99.90
42099;DHT22;27758;55.900;8.516;2022-09-09T00:54:28;13.90;99.90
42099;DHT22;27758;55.900;8.516;2022-09-09T01:06:02;13.90;99.90
42099;DHT22;27758;55.900;8.516;2022-09-09T01:09:21;13.90;99.90
42099;DHT22;27758;55.900;8.516;2022-09-09T01:11:33;13.90;99.90
42099;DHT22;27758;55.900;8.516;2022-09-09T01:17:01;13.90;99.90
42099;DHT22;27758;55.900;8.516;2022-09-09T01:24:45;13.90;99.90
42099;DHT22;27758;55.900;8.516;2022-09-09T01:27:18;13.90;99.90
42099;DHT22;27758;55.900;8.516;2022-09-09T01:29:45;13.90;99.90
42099;DHT22;27758;55.900;8.516;2022-09-09T01:32:41;14.00;99.90
42099;DHT22;27758;55.900;8.516;2022-09-09T01:35:11;14.00;99.90
42099;DHT22;27758;55.900;8.516;2022-09-09T01:37:38;14.00;99.90
42099;DHT22;27758;55.900;8.516;2022-09-09T01:40:04;14.00;99.90
42099;DHT22;27758;55.900;8.516;2022-09-09T01:42:30;14.00;99.90
42099;DHT22;27758;55.900;8.516;2022-09-09T01:44:56;14.00;99.90
42099;DHT22;27758;55.900;8.516;2022-09-09T01:47:22;14.00;99.90
42099;DHT22;27758;55.900;8.516;2022-09-09T01:49:48;14.00;99.90
42099;DHT22;27758;55.900;8.516;2022-09-09T01:52:14;14.00;99.90
42099;DHT22;27758;55.900;8.516;2022-09-09T01:54:40;14.10;99.90
42099;DHT22;27758;55.900;8.516;2022-09-09T01:57:08;14.00;99.90
42099;DHT22;27758;55.900;8.516;2022-09-09T02:08:11;14.00;99.90
42099;DHT22;27758;55.900;8.516;2022-09-09T02:10:50;14.00;99.90
42099;DHT22;27758;55.900;8.516;2022-09-09T02:13:21;14.00;99.90
42099;DHT22;27758;55.900;8.516;2022-09-09T02:21:53;14.10;99.90
42099;DHT22;27758;55.900;8.516;2022-09-09T02:24:19;14.00;99.90
42099;DHT22;27758;55.900;8.516;2022-09-09T02:26:47;14.00;99.90
42099;DHT22;27758;55.900;8.516;2022-09-09T02:29:18;14.10;99.90
42099;DHT22;27758;55.900;8.516;2022-09-09T02:31:47;14.10;99.90
42099;DHT22;27758;55.900;8.516;2022-09-09T02:34:16;14.10;99.90
42099;DHT22;27758;55.900;8.516;2022-09-09T02:36:44;14.10;99.90
42099;DHT22;27758;55.900;8.516;2022-09-09T02:39:11;14.10;99.90
42099;DHT22;27758;55.900;8.516;2022-09-09T02:41:39;14.10;99.90
42099;DHT22;27758;55.900;8.516;2022-09-09T02:44:13;14.10;99.90
42099;DHT22;27758;55.900;8.516;2022-09-09T02:52:15;14.10;99.90
42099;DHT22;27758;55.900;8.516;2022-09-09T02:54:42;14.10;99.90
42099;DHT22;27758;55.900;8.516;2022-09-09T02:57:12;14.10;99.90
42099;DHT22;27758;55.900;8.516;2022-09-09T02:59:43;14.10;99.90
42099;DHT22;27758;55.900;8.516;2022-09-09T03:02:10;14.10;99.90
42099;DHT22;27758;55.900;8.516;2022-09-09T03:04:40;14.10;99.90
42099;DHT22;27758;55.900;8.516;2022-09-09T03:07:08;14.10;99.90
42099;DHT22;27758;55.900;8.516;2022-09-09T03:09:35;14.10;99.90
42099;DHT22;27758;55.900;8.516;2022-09-09T03:12:01;14.10;99.90
42099;DHT22;27758;55.900;8.516;2022-09-09T03:14:27;14.10;99.90
42099;DHT22;27758;55.900;8.516;2022-09-09T03:16:54;14.20;99.90
42099;DHT22;27758;55.900;8.516;2022-09-09T03:19:20;14.20;99.90
42099;DHT22;27758;55.900;8.516;2022-09-09T03:21:47;14.20;99.90
42099;DHT22;27758;55.900;8.516;2022-09-09T03:24:13;14.20;99.90
42099;DHT22;27758;55.900;8.516;2022-09-09T03:26:40;14.20;99.90
42099;DHT22;27758;55.900;8.516;2022-09-09T03:29:07;14.10;99.90
42099;DHT22;27758;55.900;8.516;2022-09-09T03:31:33;14.20;99.90
42099;DHT22;27758;55.900;8.516;2022-09-09T03:33:59;14.10;99.90
42099;DHT22;27758;55.900;8.516;2022-09-09T03:36:26;14.20;99.90
42099;DHT22;27758;55.900;8.516;2022-09-09T03:38:52;14.20;99.90
42099;DHT22;27758;55.900;8.516;2022-09-09T03:41:20;14.20;99.90
42099;DHT22;27758;55.900;8.516;2022-09-09T03:43:55;14.20;99.90
42099;DHT22;27758;55.900;8.516;2022-09-09T03:46:22;14.20;99.90
42099;DHT22;27758;55.900;8.516;2022-09-09T03:48:48;14.20;99.90
42099;DHT22;27758;55.900;8.516;2022-09-09T03:51:15;14.20;99.90
42099;DHT22;27758;55.900;8.516;2022-09-09T03:53:41;14.20;99.90
42099;DHT22;27758;55.900;8.516;2022-09-09T03:56:08;14.20;99.90
42099;DHT22;27758;55.900;8.516;2022-09-09T03:58:36;14.20;99.90
42099;DHT22;27758;55.900;8.516;2022-09-09T04:01:10;14.20;99.90
42099;DHT22;27758;55.900;8.516;2022-09-09T04:03:39;14.20;99.90
42099;DHT22;27758;55.900;8.516;2022-09-09T04:06:06;14.20;99.90
42099;DHT22;27758;55.900;8.516;2022-09-09T04:08:33;14.20;99.90
42099;DHT22;27758;55.900;8.516;2022-09-09T04:11:01;14.20;99.90
42099;DHT22;27758;55.900;8.516;2022-09-09T04:13:35;14.20;99.90
42099;DHT22;27758;55.900;8.516;2022-09-09T04:16:03;14.20;99.90
42099;DHT22;27758;55.900;8.516;2022-09-09T04:18:30;14.20;99.90
42099;DHT22;27758;55.900;8.516;2022-09-09T04:20:56;14.20;99.90
42099;DHT22;27758;55.900;8.516;2022-09-09T04:23:23;14.20;99.90
42099;DHT22;27758;55.900;8.516;2022-09-09T04:25:51;14.30;99.90
42099;DHT22;27758;55.900;8.516;2022-09-09T04:28:19;14.20;99.90
42099;DHT22;27758;55.900;8.516;2022-09-09T04:30:46;14.20;99.90
42099;DHT22;27758;55.900;8.516;2022-09-09T04:33:12;14.30;99.90
42099;DHT22;27758;55.900;8.516;2022-09-09T04:35:39;14.20;99.90
42099;DHT22;27758;55.900;8.516;2022-09-09T04:38:09;14.20;99.90
42099;DHT22;27758;55.900;8.516;2022-09-09T04:40:35;14.20;99.90
42099;DHT22;27758;55.900;8.516;2022-09-09T04:43:02;14.30;99.90
42099;DHT22;27758;55.900;8.516;2022-09-09T04:45:31;14.30;99.90
42099;DHT22;27758;55.900;8.516;2022-09-09T04:47:57;14.30;99.90
42099;DHT22;27758;55.900;8.516;2022-09-09T04:50:23;14.20;99.90
42099;DHT22;27758;55.900;8.516;2022-09-09T04:52:48;14.30;99.90
42099;DHT22;27758;55.900;8.516;2022-09-09T04:55:14;14.30;99.90
42099;DHT22;27758;55.900;8.516;2022-09-09T04:57:40;14.30;99.90
42099;DHT22;27758;55.900;8.516;2022-09-09T05:00:07;14.30;99.90
42099;DHT22;27758;55.900;8.516;2022-09-09T05:02:37;14.30;99.90
42099;DHT22;27758;55.900;8.516;2022-09-09T05:05:04;14.30;99.90
42099;DHT22;27758;55.900;8.516;2022-09-09T05:07:30;14.30;99.90
42099;DHT22;27758;55.900;8.516;2022-09-09T05:09:57;14.30;99.90
42099;DHT22;27758;55.900;8.516;2022-09-09T05:12:23;14.30;99.90
42099;DHT22;27758;55.900;8.516;2022-09-09T05:14:51;14.30;99.90
42099;DHT22;27758;55.900;8.516;2022-09-09T05:17:17;14.30;99.90
42099;DHT22;27758;55.900;8.516;2022-09-09T05:19:43;14.30;99.90
42099;DHT22;27758;55.900;8.516;2022-09-09T05:22:10;14.30;99.90
42099;DHT22;27758;55.900;8.516;2022-09-09T05:24:37;14.50;99.90
42099;DHT22;27758;55.900;8.516;2022-09-09T05:27:04;14.40;99.90
42099;DHT22;27758;55.900;8.516;2022-09-09T05:29:32;14.40;99.90
42099;DHT22;27758;55.900;8.516;2022-09-09T05:32:01;14.40;99.90
42099;DHT22;27758;55.900;8.516;2022-09-09T05:34:29;14.30;99.90
42099;DHT22;27758;55.900;8.516;2022-09-09T05:36:55;14.40;99.90
42099;DHT22;27758;55.900;8.516;2022-09-09T05:39:20;14.40;99.90
42099;DHT22;27758;55.900;8.516;2022-09-09T05:41:46;14.40;99.90
42099;DHT22;27758;55.900;8.516;2022-09-09T05:44:12;14.40;99.90
42099;DHT22;27758;55.900;8.516;2022-09-09T05:46:39;14.40;99.90
42099;DHT22;27758;55.900;8.516;2022-09-09T05:49:05;14.40;99.90
42099;DHT22;27758;55.900;8.516;2022-09-09T05:51:31;14.40;99.90
42099;DHT22;27758;55.900;8.516;2022-09-09T05:53:57;14.40;99.90
42099;DHT22;27758;55.900;8.516;2022-09-09T05:56:28;14.40;99.90
42099;DHT22;27758;55.900;8.516;2022-09-09T05:58:55;14.40;99.90
42099;DHT22;27758;55.900;8.516;2022-09-09T06:01:26;14.40;99.90
42099;DHT22;27758;55.900;8.516;2022-09-09T06:03:52;14.40;99.90
42099;DHT22;27758;55.900;8.516;2022-09-09T06:06:21;14.40;99.90
42099;DHT22;27758;55.900;8.516;2022-09-09T06:08:49;14.40;99.90
42099;DHT22;27758;55.900;8.516;2022-09-09T06:11:27;14.40;99.90
42099;DHT22;27758;55.900;8.516;2022-09-09T06:13:56;14.30;99.90
42099;DHT22;27758;55.900;8.516;2022-09-09T06:16:26;14.40;99.90
42099;DHT22;27758;55.900;8.516;2022-09-09T06:18:54;14.50;99.90
42099;DHT22;27758;55.900;8.516;2022-09-09T06:21:38;14.50;99.90
42099;DHT22;27758;55.900;8.516;2022-09-09T06:24:05;14.50;99.90
42099;DHT22;27758;55.900;8.516;2022-09-09T06:26:35;14.40;99.90
42099;DHT22;27758;55.900;8.516;2022-09-09T06:29:02;14.40;99.90
42099;DHT22;27758;55.900;8.516;2022-09-09T06:31:30;14.40;99.90
42099;DHT22;27758;55.900;8.516;2022-09-09T06:33:58;14.50;99.90
42099;DHT22;27758;55.900;8.516;2022-09-09T06:36:26;14.50;99.90
42099;DHT22;27758;55.900;8.516;2022-09-09T06:38:53;14.50;99.90
42099;DHT22;27758;55.900;8.516;2022-09-09T06:41:21;14.50;99.90
42099;DHT22;27758;55.900;8.516;2022-09-09T06:43:48;14.50;99.90
42099;DHT22;27758;55.900;8.516;2022-09-09T06:46:19;14.50;99.90
42099;DHT22;27758;55.900;8.516;2022-09-09T06:48:47;14.50;99.90
42099;DHT22;27758;55.900;8.516;2022-09-09T06:51:18;14.40;99.90
42099;DHT22;27758;55.900;8.516;2022-09-09T06:53:45;14.50;99.90
42099;DHT22;27758;55.900;8.516;2022-09-09T06:58:55;14.60;99.90
42099;DHT22;27758;55.900;8.516;2022-09-09T07:01:28;14.60;99.90
42099;DHT22;27758;55.900;8.516;2022-09-09T07:03:57;14.50;99.90
42099;DHT22;27758;55.900;8.516;2022-09-09T07:06:31;14.60;99.90
42099;DHT22;27758;55.900;8.516;2022-09-09T07:08:59;14.70;99.90
42099;DHT22;27758;55.900;8.516;2022-09-09T07:11:29;14.60;99.90
42099;DHT22;27758;55.900;8.516;2022-09-09T07:13:57;14.60;99.90
42099;DHT22;27758;55.900;8.516;2022-09-09T07:16:23;14.60;99.90
42099;DHT22;27758;55.900;8.516;2022-09-09T07:18:51;14.60;99.90
42099;DHT22;27758;55.900;8.516;2022-09-09T07:21:17;14.60;99.90
42099;DHT22;27758;55.900;8.516;2022-09-09T07:23:44;14.60;99.90
42099;DHT22;27758;55.900;8.516;2022-09-09T07:26:18;14.70;99.90
42099;DHT22;27758;55.900;8.516;2022-09-09T07:28:48;14.70;99.90
42099;DHT22;27758;55.900;8.516;2022-09-09T07:31:20;14.70;99.90
42099;DHT22;27758;55.900;8.516;2022-09-09T07:33:46;14.80;99.90
42099;DHT22;27758;55.900;8.516;2022-09-09T07:36:24;14.90;99.90
42099;DHT22;27758;55.900;8.516;2022-09-09T07:38:58;15.00;99.90
42099;DHT22;27758;55.900;8.516;2022-09-09T07:41:27;15.00;99.90
42099;DHT22;27758;55.900;8.516;2022-09-09T07:43:54;15.00;99.90
42099;DHT22;27758;55.900;8.516;2022-09-09T07:46:22;14.90;99.90
42099;DHT22;27758;55.900;8.516;2022-09-09T07:48:50;15.00;99.90
42099;DHT22;27758;55.900;8.516;2022-09-09T07:51:19;15.00;99.90
42099;DHT22;27758;55.900;8.516;2022-09-09T07:53:47;15.10;99.90
42099;DHT22;27758;55.900;8.516;2022-09-09T07:56:15;15.10;99.90
42099;DHT22;27758;55.900;8.516;2022-09-09T07:58:48;15.30;99.90
42099;DHT22;27758;55.900;8.516;2022-09-09T08:01:21;15.30;99.90
42099;DHT22;27758;55.900;8.516;2022-09-09T08:03:53;15.30;99.90
42099;DHT22;27758;55.900;8.516;2022-09-09T08:06:19;15.50;99.90
42099;DHT22;27758;55.900;8.516;2022-09-09T08:08:50;15.50;99.90
42099;DHT22;27758;55.900;8.516;2022-09-09T08:11:16;15.50;99.90
42099;DHT22;27758;55.900;8.516;2022-09-09T08:13:43;15.50;99.90
42099;DHT22;27758;55.900;8.516;2022-09-09T08:16:23;15.50;99.90
42099;DHT22;27758;55.900;8.516;2022-09-09T08:18:50;15.70;99.90
42099;DHT22;27758;55.900;8.516;2022-09-09T08:21:20;15.80;99.90
42099;DHT22;27758;55.900;8.516;2022-09-09T08:23:47;15.80;99.90
42099;DHT22;27758;55.900;8.516;2022-09-09T08:26:15;15.70;99.90
42099;DHT22;27758;55.900;8.516;2022-09-09T08:28:42;15.70;99.90
42099;DHT22;27758;55.900;8.516;2022-09-09T08:31:14;15.70;99.90
42099;DHT22;27758;55.900;8.516;2022-09-09T08:33:41;15.70;99.90
42099;DHT22;27758;55.900;8.516;2022-09-09T08:36:10;15.70;99.90
42099;DHT22;27758;55.900;8.516;2022-09-09T08:38:37;15.70;99.90
42099;DHT22;27758;55.900;8.516;2022-09-09T08:41:30;15.70;99.90
42099;DHT22;27758;55.900;8.516;2022-09-09T08:44:07;15.70;99.90
42099;DHT22;27758;55.900;8.516;2022-09-09T08:49:20;15.70;99.90
42099;DHT22;27758;55.900;8.516;2022-09-09T08:51:48;15.90;99.90
42099;DHT22;27758;55.900;8.516;2022-09-09T08:54:15;16.00;99.90
42099;DHT22;27758;55.900;8.516;2022-09-09T08:56:41;16.00;99.90
42099;DHT22;27758;55.900;8.516;2022-09-09T08:59:10;16.00;99.90
42099;DHT22;27758;55.900;8.516;2022-09-09T09:04:37;16.00;99.90
42099;DHT22;27758;55.900;8.516;2022-09-09T09:09:57;16.20;99.90
42099;DHT22;27758;55.900;8.516;2022-09-09T09:12:30;16.20;99.90
42099;DHT22;27758;55.900;8.516;2022-09-09T09:14:59;16.20;99.90
42099;DHT22;27758;55.900;8.516;2022-09-09T09:17:28;16.20;99.90
42099;DHT22;27758;55.900;8.516;2022-09-09T09:19:57;16.20;99.90
42099;DHT22;27758;55.900;8.516;2022-09-09T09:22:50;16.30;99.90
42099;DHT22;27758;55.900;8.516;2022-09-09T09:25:31;16.40;99.90
42099;DHT22;27758;55.900;8.516;2022-09-09T09:27:59;16.40;99.90
42099;DHT22;27758;55.900;8.516;2022-09-09T09:33:31;16.40;99.90
42099;DHT22;27758;55.900;8.516;2022-09-09T09:35:58;16.40;99.90
42099;DHT22;27758;55.900;8.516;2022-09-09T09:38:26;16.40;99.90
42099;DHT22;27758;55.900;8.516;2022-09-09T09:40:56;16.50;99.90
42099;DHT22;27758;55.900;8.516;2022-09-09T09:43:34;16.50;99.90
42099;DHT22;27758;55.900;8.516;2022-09-09T09:46:03;16.60;99.90
42099;DHT22;27758;55.900;8.516;2022-09-09T09:48:29;16.50;99.90
42099;DHT22;27758;55.900;8.516;2022-09-09T09:51:00;16.40;99.90
42099;DHT22;27758;55.900;8.516;2022-09-09T09:53:29;16.50;99.90
42099;DHT22;27758;55.900;8.516;2022-09-09T09:56:05;16.50;99.90
42099;DHT22;27758;55.900;8.516;2022-09-09T09:58:38;16.60;99.90
42099;DHT22;27758;55.900;8.516;2022-09-09T10:01:27;16.70;99.90
42099;DHT22;27758;55.900;8.516;2022-09-09T10:03:59;16.80;99.90
42099;DHT22;27758;55.900;8.516;2022-09-09T10:06:36;16.80;99.90
42099;DHT22;27758;55.900;8.516;2022-09-09T10:09:39;16.80;99.90
42099;DHT22;27758;55.900;8.516;2022-09-09T10:14:49;17.00;99.90
42099;DHT22;27758;55.900;8.516;2022-09-09T10:22:33;17.10;99.90
42099;DHT22;27758;55.900;8.516;2022-09-09T10:30:21;17.00;99.90
42099;DHT22;27758;55.900;8.516;2022-09-09T10:33:10;16.90;99.90
42099;DHT22;27758;55.900;8.516;2022-09-09T10:35:55;16.90;99.90
42099;DHT22;27758;55.900;8.516;2022-09-09T10:38:39;17.00;99.90
42099;DHT22;27758;55.900;8.516;2022-09-09T10:41:26;17.00;99.90
42099;DHT22;27758;55.900;8.516;2022-09-09T10:52:32;17.50;99.90
42099;DHT22;27758;55.900;8.516;2022-09-09T10:55:12;17.50;99.90
42099;DHT22;27758;55.900;8.516;2022-09-09T10:57:51;17.50;99.90
42099;DHT22;27758;55.900;8.516;2022-09-09T11:00:23;17.60;99.90
42099;DHT22;27758;55.900;8.516;2022-09-09T11:02:58;17.90;99.90
42099;DHT22;27758;55.900;8.516;2022-09-09T11:05:41;18.50;99.90
42099;DHT22;27758;55.900;8.516;2022-09-09T11:08:28;19.10;99.90
42099;DHT22;27758;55.900;8.516;2022-09-09T11:13:51;20.10;99.90
42099;DHT22;27758;55.900;8.516;2022-09-09T11:16:33;20.50;99.90
42099;DHT22;27758;55.900;8.516;2022-09-09T11:19:19;20.70;99.90
42099;DHT22;27758;55.900;8.516;2022-09-09T11:21:51;20.40;99.90
42099;DHT22;27758;55.900;8.516;2022-09-09T11:24:40;20.20;99.90
42099;DHT22;27758;55.900;8.516;2022-09-09T11:27:18;20.50;99.90
42099;DHT22;27758;55.900;8.516;2022-09-09T11:29:58;21.50;99.90
42099;DHT22;27758;55.900;8.516;2022-09-09T11:37:50;22.30;99.90
42099;DHT22;27758;55.900;8.516;2022-09-09T11:42:47;22.90;99.90
42099;DHT22;27758;55.900;8.516;2022-09-09T11:45:24;23.20;99.90
42099;DHT22;27758;55.900;8.516;2022-09-09T11:47:57;23.70;99.90
42099;DHT22;27758;55.900;8.516;2022-09-09T11:52:49;23.10;99.90
42099;DHT22;27758;55.900;8.516;2022-09-09T11:58:02;22.40;99.90
42099;DHT22;27758;55.900;8.516;2022-09-09T12:00:38;22.10;99.90
42099;DHT22;27758;55.900;8.516;2022-09-09T12:03:54;22.10;99.90
42099;DHT22;27758;55.900;8.516;2022-09-09T12:05:53;22.20;99.90
42099;DHT22;27758;55.900;8.516;2022-09-09T12:08:26;22.30;99.90
42099;DHT22;27758;55.900;8.516;2022-09-09T12:10:55;22.30;99.90
42099;DHT22;27758;55.900;8.516;2022-09-09T12:13:24;22.00;99.90
42099;DHT22;27758;55.900;8.516;2022-09-09T12:16:00;21.70;99.90
42099;DHT22;27758;55.900;8.516;2022-09-09T12:18:36;21.60;99.90
42099;DHT22;27758;55.900;8.516;2022-09-09T12:23:58;21.20;99.90
42099;DHT22;27758;55.900;8.516;2022-09-09T12:26:58;21.10;99.90
42099;DHT22;27758;55.900;8.516;2022-09-09T12:30:08;20.90;99.90
42099;DHT22;27758;55.900;8.516;2022-09-09T12:32:24;20.70;99.90
42099;DHT22;27758;55.900;8.516;2022-09-09T12:34:59;20.60;99.90
42099;DHT22;27758;55.900;8.516;2022-09-09T12:37:40;20.70;99.90
42099;DHT22;27758;55.900;8.516;2022-09-09T12:40:25;21.10;99.90
42099;DHT22;27758;55.900;8.516;2022-09-09T12:42:51;21.60;99.90
42099;DHT22;27758;55.900;8.516;2022-09-09T12:45:20;22.20;99.90
42099;DHT22;27758;55.900;8.516;2022-09-09T12:48:08;22.70;99.90
42099;DHT22;27758;55.900;8.516;2022-09-09T12:50:37;23.00;99.90
42099;DHT22;27758;55.900;8.516;2022-09-09T12:53:10;22.70;99.90
42099;DHT22;27758;55.900;8.516;2022-09-09T12:55:38;22.50;99.90
42099;DHT22;27758;55.900;8.516;2022-09-09T12:58:05;22.50;99.90
42099;DHT22;27758;55.900;8.516;2022-09-09T13:00:33;22.30;99.90
42099;DHT22;27758;55.900;8.516;2022-09-09T13:03:16;22.10;99.90
42099;DHT22;27758;55.900;8.516;2022-09-09T13:05:43;22.30;99.90
42099;DHT22;27758;55.900;8.516;2022-09-09T13:08:10;22.30;99.90
42099;DHT22;27758;55.900;8.516;2022-09-09T13:10:44;22.40;99.90
42099;DHT22;27758;55.900;8.516;2022-09-09T13:13:17;22.60;99.90
42099;DHT22;27758;55.900;8.516;2022-09-09T13:15:54;22.80;99.90
42099;DHT22;27758;55.900;8.516;2022-09-09T13:18:30;22.90;99.90
42099;DHT22;27758;55.900;8.516;2022-09-09T13:20:56;22.70;99.90
42099;DHT22;27758;55.900;8.516;2022-09-09T13:23:29;22.40;99.90
42099;DHT22;27758;55.900;8.516;2022-09-09T13:25:59;21.80;99.90
42099;DHT22;27758;55.900;8.516;2022-09-09T13:28:30;21.80;99.90
42099;DHT22;27758;55.900;8.516;2022-09-09T13:31:21;22.20;99.90
42099;DHT22;27758;55.900;8.516;2022-09-09T13:33:47;22.70;99.90
42099;DHT22;27758;55.900;8.516;2022-09-09T13:36:13;22.90;99.90
42099;DHT22;27758;55.900;8.516;2022-09-09T13:41:24;22.50;99.90
42099;DHT22;27758;55.900;8.516;2022-09-09T13:43:54;22.60;99.90
42099;DHT22;27758;55.900;8.516;2022-09-09T13:46:40;22.70;99.90
42099;DHT22;27758;55.900;8.516;2022-09-09T13:51:37;21.80;99.90
42099;DHT22;27758;55.900;8.516;2022-09-09T13:54:08;21.40;99.90
42099;DHT22;27758;55.900;8.516;2022-09-09T13:56:35;21.10;99.90
42099;DHT22;27758;55.900;8.516;2022-09-09T13:59:03;20.80;99.90
42099;DHT22;27758;55.900;8.516;2022-09-09T14:01:29;20.40;99.90
42099;DHT22;27758;55.900;8.516;2022-09-09T14:03:55;20.00;99.90
42099;DHT22;27758;55.900;8.516;2022-09-09T14:06:21;19.70;99.90
42099;DHT22;27758;55.900;8.516;2022-09-09T14:08:49;19.60;99.90
42099;DHT22;27758;55.900;8.516;2022-09-09T14:11:16;19.60;99.90
42099;DHT22;27758;55.900;8.516;2022-09-09T14:13:42;19.50;99.90
42099;DHT22;27758;55.900;8.516;2022-09-09T14:16:08;19.50;99.90
42099;DHT22;27758;55.900;8.516;2022-09-09T14:18:35;19.50;99.90
42099;DHT22;27758;55.900;8.516;2022-09-09T14:21:01;19.40;99.90
42099;DHT22;27758;55.900;8.516;2022-09-09T14:23:27;19.40;99.90
42099;DHT22;27758;55.900;8.516;2022-09-09T14:25:55;19.30;99.90
42099;DHT22;27758;55.900;8.516;2022-09-09T14:28:21;19.30;99.90
42099;DHT22;27758;55.900;8.516;2022-09-09T14:30:47;19.20;99.90
42099;DHT22;27758;55.900;8.516;2022-09-09T14:33:15;19.20;99.90
42099;DHT22;27758;55.900;8.516;2022-09-09T14:35:42;19.10;99.90
42099;DHT22;27758;55.900;8.516;2022-09-09T14:38:08;19.10;99.90
42099;DHT22;27758;55.900;8.516;2022-09-09T14:40:35;19.10;99.90
42099;DHT22;27758;55.900;8.516;2022-09-09T14:43:01;19.00;99.90
42099;DHT22;27758;55.900;8.516;2022-09-09T14:45:27;18.90;99.90
42099;DHT22;27758;55.900;8.516;2022-09-09T14:47:53;18.90;99.90
42099;DHT22;27758;55.900;8.516;2022-09-09T14:50:20;18.90;99.90
42099;DHT22;27758;55.900;8.516;2022-09-09T14:52:47;19.00;99.90
42099;DHT22;27758;55.900;8.516;2022-09-09T14:55:13;19.10;99.90
42099;DHT22;27758;55.900;8.516;2022-09-09T14:57:39;19.20;99.90
42099;DHT22;27758;55.900;8.516;2022-09-09T15:00:07;19.20;99.90
42099;DHT22;27758;55.900;8.516;2022-09-09T15:02:33;19.30;99.90
42099;DHT22;27758;55.900;8.516;2022-09-09T15:04:59;19.40;99.90
42099;DHT22;27758;55.900;8.516;2022-09-09T15:07:25;19.50;99.90
42099;DHT22;27758;55.900;8.516;2022-09-09T15:09:52;19.70;99.90
42099;DHT22;27758;55.900;8.516;2022-09-09T15:12:18;19.70;99.90
42099;DHT22;27758;55.900;8.516;2022-09-09T15:14:45;19.90;99.90
42099;DHT22;27758;55.900;8.516;2022-09-09T15:17:11;20.00;99.90
42099;DHT22;27758;55.900;8.516;2022-09-09T15:19:37;20.30;99.90
42099;DHT22;27758;55.900;8.516;2022-09-09T15:22:04;20.70;99.90
42099;DHT22;27758;55.900;8.516;2022-09-09T15:24:32;20.90;99.90
42099;DHT22;27758;55.900;8.516;2022-09-09T15:26:58;20.90;99.90
42099;DHT22;27758;55.900;8.516;2022-09-09T15:29:24;21.10;99.90
42099;DHT22;27758;55.900;8.516;2022-09-09T15:31:50;21.10;99.90
42099;DHT22;27758;55.900;8.516;2022-09-09T15:34:16;21.10;99.90
42099;DHT22;27758;55.900;8.516;2022-09-09T15:36:45;21.10;99.90
42099;DHT22;27758;55.900;8.516;2022-09-09T15:39:14;21.20;99.90
42099;DHT22;27758;55.900;8.516;2022-09-09T15:41:47;21.10;99.90
42099;DHT22;27758;55.900;8.516;2022-09-09T15:44:14;20.50;99.90
42099;DHT22;27758;55.900;8.516;2022-09-09T15:46:46;20.10;99.90
42099;DHT22;27758;55.900;8.516;2022-09-09T15:49:19;19.70;99.90
42099;DHT22;27758;55.900;8.516;2022-09-09T15:51:55;19.40;99.90
42099;DHT22;27758;55.900;8.516;2022-09-09T15:54:23;19.10;99.90
42099;DHT22;27758;55.900;8.516;2022-09-09T15:57:01;18.90;99.90
42099;DHT22;27758;55.900;8.516;2022-09-09T15:59:29;18.70;99.90
42099;DHT22;27758;55.900;8.516;2022-09-09T16:01:55;18.40;99.90
42099;DHT22;27758;55.900;8.516;2022-09-09T16:04:22;18.30;99.90
42099;DHT22;27758;55.900;8.516;2022-09-09T16:07:11;18.20;99.90
42099;DHT22;27758;55.900;8.516;2022-09-09T16:09:37;18.20;99.90
42099;DHT22;27758;55.900;8.516;2022-09-09T16:12:04;18.20;99.90
42099;DHT22;27758;55.900;8.516;2022-09-09T16:14:32;18.30;99.90
42099;DHT22;27758;55.900;8.516;2022-09-09T16:17:02;18.30;99.90
42099;DHT22;27758;55.900;8.516;2022-09-09T16:19:28;18.30;99.90
42099;DHT22;27758;55.900;8.516;2022-09-09T16:21:54;18.10;99.90
42099;DHT22;27758;55.900;8.516;2022-09-09T16:24:20;18.10;99.90
42099;DHT22;27758;55.900;8.516;2022-09-09T16:26:48;17.90;99.90
42099;DHT22;27758;55.900;8.516;2022-09-09T16:29:16;17.80;99.90
42099;DHT22;27758;55.900;8.516;2022-09-09T16:31:43;17.80;99.90
42099;DHT22;27758;55.900;8.516;2022-09-09T16:34:09;17.70;99.90
42099;DHT22;27758;55.900;8.516;2022-09-09T16:36:37;17.60;99.90
42099;DHT22;27758;55.900;8.516;2022-09-09T16:39:07;17.60;99.90
42099;DHT22;27758;55.900;8.516;2022-09-09T16:41:35;17.60;99.90
42099;DHT22;27758;55.900;8.516;2022-09-09T16:44:03;17.50;99.90
42099;DHT22;27758;55.900;8.516;2022-09-09T16:46:30;17.60;99.90
42099;DHT22;27758;55.900;8.516;2022-09-09T16:48:58;17.50;99.90
42099;DHT22;27758;55.900;8.516;2022-09-09T16:51:26;17.40;99.90
42099;DHT22;27758;55.900;8.516;2022-09-09T16:53:53;17.40;99.90
42099;DHT22;27758;55.900;8.516;2022-09-09T16:56:22;17.40;99.90
42099;DHT22;27758;55.900;8.516;2022-09-09T16:58:55;17.60;99.90
42099;DHT22;27758;55.900;8.516;2022-09-09T17:01:23;17.50;99.90
42099;DHT22;27758;55.900;8.516;2022-09-09T17:04:03;17.60;99.90
42099;DHT22;27758;55.900;8.516;2022-09-09T17:06:31;17.70;99.90
42099;DHT22;27758;55.900;8.516;2022-09-09T17:09:02;17.50;99.90
42099;DHT22;27758;55.900;8.516;2022-09-09T17:11:29;17.40;99.90
42099;DHT22;27758;55.900;8.516;2022-09-09T17:13:57;17.40;99.90
42099;DHT22;27758;55.900;8.516;2022-09-09T17:16:26;17.40;99.90
42099;DHT22;27758;55.900;8.516;2022-09-09T17:18:56;17.30;99.90
42099;DHT22;27758;55.900;8.516;2022-09-09T17:21:24;17.30;99.90
42099;DHT22;27758;55.900;8.516;2022-09-09T17:23:51;17.30;99.90
42099;DHT22;27758;55.900;8.516;2022-09-09T17:26:19;17.30;99.90
42099;DHT22;27758;55.900;8.516;2022-09-09T17:28:45;17.30;99.90
42099;DHT22;27758;55.900;8.516;2022-09-09T17:31:13;17.40;99.90
42099;DHT22;27758;55.900;8.516;2022-09-09T17:33:40;17.30;99.90
42099;DHT22;27758;55.900;8.516;2022-09-09T17:36:12;17.20;99.90
42099;DHT22;27758;55.900;8.516;2022-09-09T17:38:38;17.20;99.90
42099;DHT22;27758;55.900;8.516;2022-09-09T17:41:07;17.10;99.90
42099;DHT22;27758;55.900;8.516;2022-09-09T17:43:33;17.10;99.90
42099;DHT22;27758;55.900;8.516;2022-09-09T17:46:09;17.10;99.90
42099;DHT22;27758;55.900;8.516;2022-09-09T17:48:35;17.00;99.90